createdAt,value
2018-10-05T00:01:02.040Z,100670.98
2018-10-05T00:03:31.447Z,100659.23
2018-10-05T00:05:59.800Z,100657.28
2018-10-05T00:08:28.843Z,100654.35
2018-10-05T00:10:57.191Z,100648.34
2018-10-05T00:13:25.584Z,100649.45
2018-10-05T00:15:54.379Z,100649.09
2018-10-05T00:18:22.720Z,100652.92
2018-10-05T00:23:18.871Z,100645.34
2018-10-05T00:25:47.232Z,100649.38
2018-10-05T00:28:15.787Z,100649.26
2018-10-05T00:30:44.547Z,100650.86
2018-10-05T00:33:12.939Z,100648.66
2018-10-05T00:35:41.406Z,100647.19
2018-10-05T00:38:10.150Z,100644.13
2018-10-05T00:40:38.481Z,100645.71
2018-10-05T00:43:06.845Z,100641.67
2018-10-05T00:45:35.249Z,100638.13
2018-10-05T00:48:03.697Z,100634.45
2018-10-05T00:50:32.125Z,100628.84
2018-10-05T00:53:00.949Z,100629.21
2018-10-05T00:55:29.401Z,100626.14
2018-10-05T00:57:57.775Z,100630.92
2018-10-05T01:00:26.625Z,100627.00
2018-10-05T01:02:55.111Z,100619.65
2018-10-05T01:05:23.575Z,100611.55
2018-10-05T01:07:52.372Z,100613.13
2018-10-05T01:10:20.779Z,100614.30
2018-10-05T01:12:49.145Z,100611.17
2018-10-05T01:15:18.016Z,100604.67
2018-10-05T01:17:46.436Z,100604.20
2018-10-05T01:20:14.831Z,100598.70
2018-10-05T01:22:43.663Z,100597.59
2018-10-05T01:25:12.115Z,100585.95
2018-10-05T01:27:40.520Z,100589.37
2018-10-05T01:30:13.303Z,100583.14
2018-10-05T01:32:43.603Z,100577.62
2018-10-05T01:35:12.488Z,100571.01
2018-10-05T01:37:41.626Z,100569.64
2018-10-05T01:40:10.572Z,100575.90
2018-10-05T01:42:38.932Z,100581.79
2018-10-05T01:45:07.667Z,100570.52
2018-10-05T01:47:36.011Z,100578.97
2018-10-05T01:50:04.387Z,100570.52
2018-10-05T01:52:33.111Z,100574.66
2018-10-05T01:55:01.479Z,100559.84
2018-10-05T01:57:29.868Z,100562.06
2018-10-05T01:59:58.655Z,100558.85
2018-10-05T02:02:27.091Z,100558.98
2018-10-05T02:04:55.431Z,100567.55
2018-10-05T02:07:24.307Z,100564.14
2018-10-05T02:09:53.082Z,100556.91
2018-10-05T02:12:21.502Z,100554.70
2018-10-05T02:14:50.260Z,100554.70
2018-10-05T02:17:18.743Z,100549.30
2018-10-05T02:19:47.135Z,100543.30
2018-10-05T02:22:16.008Z,100534.48
2018-10-05T02:24:44.492Z,100543.53
2018-10-05T02:27:12.953Z,100532.28
2018-10-05T02:29:41.864Z,100532.03
2018-10-05T02:32:10.239Z,100531.43
2018-10-05T02:34:38.651Z,100525.66
2018-10-05T02:37:07.404Z,100528.35
2018-10-05T02:39:35.895Z,100524.58
2018-10-05T02:42:04.299Z,100521.87
2018-10-05T02:44:33.264Z,100530.56
2018-10-05T02:47:01.719Z,100519.03
2018-10-05T02:49:30.114Z,100517.19
2018-10-05T02:51:58.804Z,100521.61
2018-10-05T02:54:28.204Z,100520.48
2018-10-05T02:56:56.739Z,100522.31
2018-10-05T02:59:25.488Z,100480.08
2018-10-05T03:02:05.407Z,100503.92
2018-10-05T03:04:34.315Z,100502.59
2018-10-05T03:07:02.653Z,100499.05
2018-10-05T03:09:31.034Z,100494.25
2018-10-05T03:11:59.859Z,100481.01
2018-10-05T03:14:28.211Z,100488.50
2018-10-05T03:16:57.400Z,100490.59
2018-10-05T03:19:26.094Z,100488.51
2018-10-05T03:21:54.588Z,100485.72
2018-10-05T03:24:23.104Z,100484.73
2018-10-05T03:26:51.979Z,100482.66
2018-10-05T03:29:20.391Z,100481.50
2018-10-05T03:31:48.823Z,100477.22
2018-10-05T03:34:17.627Z,100473.05
2018-10-05T03:36:45.999Z,100478.19
2018-10-05T03:39:15.176Z,100478.36
2018-10-05T03:41:44.308Z,100474.18
2018-10-05T03:44:13.335Z,100464.74
2018-10-05T03:46:42.375Z,100471.61
2018-10-05T03:49:11.695Z,100470.27
2018-10-05T03:51:40.775Z,100472.34
2018-10-05T03:54:09.864Z,100466.95
2018-10-05T03:56:39.320Z,100463.01
2018-10-05T03:59:08.360Z,100472.03
2018-10-05T04:01:37.455Z,100466.22
2018-10-05T04:04:07.487Z,100462.80
2018-10-05T04:06:36.612Z,100458.25
2018-10-05T04:09:08.261Z,100451.88
2018-10-05T04:11:37.367Z,100445.72
2018-10-05T04:14:06.552Z,100444.77
2018-10-05T04:16:36.056Z,100443.28
2018-10-05T04:19:05.829Z,100440.35
2018-10-05T04:21:34.859Z,100442.79
2018-10-05T04:24:04.243Z,100435.91
2018-10-05T04:26:33.331Z,100440.84
2018-10-05T04:29:02.417Z,100439.14
2018-10-05T04:31:31.768Z,100435.45
2018-10-05T04:34:00.808Z,100432.03
2018-10-05T04:36:29.820Z,100441.47
2018-10-05T04:38:58.918Z,100439.37
2018-10-05T04:41:28.101Z,100450.81
2018-10-05T04:43:57.164Z,100445.16
2018-10-05T04:46:26.299Z,100448.90
2018-10-05T04:48:55.476Z,100450.14
2018-10-05T04:51:24.759Z,100447.06
2018-10-05T04:53:54.399Z,100449.00
2018-10-05T04:56:23.823Z,100448.27
2018-10-05T04:58:53.213Z,100448.07
2018-10-05T05:01:22.280Z,100450.77
2018-10-05T05:03:51.379Z,100445.01
2018-10-05T05:06:20.387Z,100446.20
2018-10-05T05:08:50.304Z,100447.81
2018-10-05T05:11:19.538Z,100445.55
2018-10-05T05:13:48.772Z,100441.64
2018-10-05T05:16:19.432Z,100441.77
2018-10-05T05:18:48.457Z,100451.08
2018-10-05T05:21:17.499Z,100450.32
2018-10-05T05:23:46.543Z,100441.27
2018-10-05T05:26:15.737Z,100437.95
2018-10-05T05:28:45.199Z,100439.72
2018-10-05T05:31:14.880Z,100436.01
2018-10-05T05:33:44.095Z,100434.42
2018-10-05T05:36:13.108Z,100432.84
2018-10-05T05:38:42.306Z,100436.30
2018-10-05T05:41:11.415Z,100433.60
2018-10-05T05:43:40.449Z,100440.94
2018-10-05T05:46:09.841Z,100446.89
2018-10-05T05:48:39.072Z,100451.67
2018-10-05T05:51:08.104Z,100454.39
2018-10-05T05:53:37.509Z,100454.50
2018-10-05T05:56:06.576Z,100453.12
2018-10-05T05:58:35.716Z,100448.48
2018-10-05T06:01:07.986Z,100447.86
2018-10-05T06:03:38.343Z,100452.00
2018-10-05T06:06:08.405Z,100461.31
2018-10-05T06:08:37.424Z,100454.20
2018-10-05T06:11:06.787Z,100460.45
2018-10-05T06:13:36.296Z,100461.80
2018-10-05T06:16:05.402Z,100460.09
2018-10-05T06:18:34.363Z,100470.63
2018-10-05T06:21:03.839Z,100468.02
2018-10-05T06:23:33.792Z,100474.48
2018-10-05T06:26:02.835Z,100468.36
2018-10-05T06:28:31.906Z,100476.52
2018-10-05T06:31:01.110Z,100469.27
2018-10-05T06:33:30.332Z,100476.88
2018-10-05T06:35:59.373Z,100480.79
2018-10-05T06:38:28.475Z,100483.19
2018-10-05T06:40:57.844Z,100476.98
2018-10-05T06:43:27.916Z,100480.21
2018-10-05T06:45:57.176Z,100473.14
2018-10-05T06:48:26.187Z,100485.12
2018-10-05T06:50:55.237Z,100483.45
2018-10-05T06:53:24.416Z,100484.81
2018-10-05T06:55:53.468Z,100459.50
2018-10-05T06:58:22.975Z,100491.11
2018-10-05T07:00:52.059Z,100491.52
2018-10-05T07:03:21.149Z,100494.66
2018-10-05T07:05:50.806Z,100498.44
2018-10-05T07:08:19.859Z,100496.95
2018-10-05T07:10:48.975Z,100497.36
2018-10-05T07:13:18.808Z,100494.03
2018-10-05T07:15:47.878Z,100503.36
2018-10-05T07:18:17.515Z,100499.13
2018-10-05T07:20:46.907Z,100505.52
2018-10-05T07:23:15.964Z,100501.69
2018-10-05T07:25:45.012Z,100506.81
2018-10-05T07:28:14.403Z,100507.78
2018-10-05T07:30:43.463Z,100506.43
2018-10-05T07:33:12.647Z,100514.27
2018-10-05T07:35:42.067Z,100506.02
2018-10-05T07:38:11.394Z,100514.66
2018-10-05T07:40:40.446Z,100520.08
2018-10-05T07:43:09.824Z,100514.41
2018-10-05T07:45:39.004Z,100518.98
2018-10-05T07:48:08.043Z,100525.94
2018-10-05T07:50:37.352Z,100522.27
2018-10-05T07:53:06.852Z,100518.90
2018-10-05T07:55:35.955Z,100531.45
2018-10-05T07:58:05.356Z,100527.69
2018-10-05T08:00:34.435Z,100529.20
2018-10-05T08:03:03.527Z,100527.22
2018-10-05T08:05:33.577Z,100533.78
2018-10-05T08:08:02.596Z,100532.16
2018-10-05T08:10:31.682Z,100529.28
2018-10-05T08:13:00.844Z,100534.91
2018-10-05T08:15:30.016Z,100536.72
2018-10-05T08:17:59.032Z,100539.41
2018-10-05T08:20:29.363Z,100549.88
2018-10-05T08:22:58.451Z,100549.88
2018-10-05T08:25:27.555Z,100553.58
2018-10-05T08:27:56.676Z,100550.59
2018-10-05T08:30:25.877Z,100554.52
2018-10-05T08:32:55.340Z,100550.09
2018-10-05T08:35:24.855Z,100550.30
2018-10-05T08:37:53.872Z,100565.19
2018-10-05T08:40:22.976Z,100573.45
2018-10-05T08:42:52.357Z,100572.10
2018-10-05T08:45:21.380Z,100570.04
2018-10-05T08:47:50.369Z,100565.27
2018-10-05T08:50:19.843Z,100573.06
2018-10-05T08:52:49.316Z,100571.61
2018-10-05T08:55:18.384Z,100571.18
2018-10-05T08:57:47.458Z,100577.72
2018-10-05T09:00:16.921Z,100569.60
2018-10-05T09:02:46.120Z,100566.26
2018-10-05T09:05:15.207Z,100572.38
2018-10-05T09:07:44.459Z,100560.41
2018-10-05T09:10:13.503Z,100577.86
2018-10-05T09:12:42.835Z,100578.16
2018-10-05T09:15:11.867Z,100575.87
2018-10-05T09:17:41.079Z,100563.98
2018-10-05T09:20:10.616Z,100587.34
2018-10-05T09:22:39.697Z,100578.23
2018-10-05T09:25:08.804Z,100590.16
2018-10-05T09:27:38.267Z,100595.83
2018-10-05T09:30:07.276Z,100583.44
2018-10-05T09:32:36.406Z,100577.95
2018-10-05T09:35:06.215Z,100586.07
2018-10-05T09:37:35.310Z,100579.94
2018-10-05T09:40:04.399Z,100574.76
2018-10-05T09:42:33.908Z,100576.68
2018-10-05T09:45:02.988Z,100553.64
2018-10-05T09:47:32.043Z,100579.80
2018-10-05T09:50:01.409Z,100593.11
2018-10-05T09:52:30.867Z,100597.76
2018-10-05T09:54:59.964Z,100593.45
2018-10-05T09:57:29.107Z,100594.64
2018-10-05T09:59:58.228Z,100607.93
2018-10-05T10:02:33.023Z,100602.36
2018-10-05T10:05:02.336Z,100596.58
2018-10-05T10:07:31.359Z,100598.34
2018-10-05T10:10:00.728Z,100594.28
2018-10-05T10:12:29.742Z,100599.11
2018-10-05T10:14:59.234Z,100586.30
2018-10-05T10:17:28.424Z,100591.02
2018-10-05T10:19:57.604Z,100592.13
2018-10-05T10:22:26.612Z,100594.06
2018-10-05T10:24:56.407Z,100595.02
2018-10-05T10:27:26.135Z,100596.66
2018-10-05T10:29:55.178Z,100600.19
2018-10-05T10:32:24.614Z,100600.38
2018-10-05T10:34:53.703Z,100591.73
2018-10-05T10:37:22.733Z,100588.72
2018-10-05T10:39:52.323Z,100602.80
2018-10-05T10:42:21.408Z,100600.83
2018-10-05T10:44:50.487Z,100600.48
2018-10-05T10:47:19.935Z,100609.72
2018-10-05T10:49:48.992Z,100601.22
2018-10-05T10:52:18.079Z,100611.80
2018-10-05T10:54:47.411Z,100603.85
2018-10-05T10:57:16.449Z,100613.16
2018-10-05T10:59:45.708Z,100603.34
2018-10-05T11:02:18.020Z,100601.38
2018-10-05T11:04:47.140Z,100611.50
2018-10-05T11:07:16.211Z,100606.61
2018-10-05T11:09:45.364Z,100608.20
2018-10-05T11:12:14.445Z,100606.26
2018-10-05T11:14:43.491Z,100618.91
2018-10-05T11:17:12.631Z,100621.31
2018-10-05T11:19:41.649Z,100615.30
2018-10-05T11:22:11.903Z,100609.09
2018-10-05T11:24:40.933Z,100618.13
2018-10-05T11:27:10.621Z,100624.70
2018-10-05T11:29:39.900Z,100622.20
2018-10-05T11:32:09.074Z,100614.75
2018-10-05T11:34:38.419Z,100614.49
2018-10-05T11:37:07.960Z,100607.42
2018-10-05T11:39:37.078Z,100620.07
2018-10-05T11:42:06.095Z,100612.53
2018-10-05T11:44:35.653Z,100616.81
2018-10-05T11:47:04.651Z,100630.17
2018-10-05T11:49:33.825Z,100631.16
2018-10-05T11:52:03.341Z,100629.92
2018-10-05T11:54:32.467Z,100631.28
2018-10-05T11:57:01.543Z,100625.06
2018-10-05T11:59:31.605Z,100625.31
2018-10-05T12:02:00.750Z,100622.48
2018-10-05T12:04:29.775Z,100619.47
2018-10-05T12:06:59.144Z,100638.36
2018-10-05T12:09:28.176Z,100632.71
2018-10-05T12:11:57.239Z,100636.36
2018-10-05T12:14:26.585Z,100642.19
2018-10-05T12:16:55.713Z,100649.73
2018-10-05T12:19:24.834Z,100662.63
2018-10-05T12:21:54.332Z,100664.57
2018-10-05T12:24:23.348Z,100660.25
2018-10-05T12:26:52.433Z,100652.66
2018-10-05T12:29:21.577Z,100648.79
2018-10-05T12:31:50.715Z,100641.64
2018-10-05T12:34:19.837Z,100650.42
2018-10-05T12:36:49.320Z,100646.25
2018-10-05T12:39:19.359Z,100648.67
2018-10-05T12:41:48.486Z,100647.73
2018-10-05T12:44:17.443Z,100654.02
2018-10-05T12:46:46.452Z,100650.00
2018-10-05T12:49:15.613Z,100655.12
2018-10-05T12:51:45.028Z,100649.23
2018-10-05T12:54:14.139Z,100645.66
2018-10-05T12:56:43.144Z,100651.23
2018-10-05T12:59:12.504Z,100651.45
2018-10-05T13:01:41.508Z,100527.81
2018-10-05T13:04:11.009Z,100666.66
2018-10-05T13:06:40.351Z,100677.14
2018-10-05T13:09:10.296Z,100681.23
2018-10-05T13:11:39.315Z,100673.78
2018-10-05T13:14:08.704Z,100678.78
2018-10-05T13:16:37.796Z,100683.14
2018-10-05T13:19:07.195Z,100673.34
2018-10-05T13:21:36.704Z,100675.10
2018-10-05T13:24:05.971Z,100685.02
2018-10-05T13:26:35.490Z,100689.05
2018-10-05T13:29:04.777Z,100694.47
2018-10-05T13:31:34.356Z,100671.07
2018-10-05T13:34:03.819Z,100662.72
2018-10-05T13:36:33.428Z,100650.98
2018-10-05T13:39:03.096Z,100680.64
2018-10-05T13:41:32.223Z,100672.00
2018-10-05T13:44:01.640Z,100679.84
2018-10-05T13:46:31.229Z,100655.55
2018-10-05T13:49:00.416Z,100678.78
2018-10-05T13:51:29.844Z,100668.02
2018-10-05T13:53:58.903Z,100671.02
2018-10-05T13:56:28.237Z,100657.06
2018-10-05T13:58:57.647Z,100672.09
2018-10-05T14:01:26.677Z,100672.13
2018-10-05T14:03:55.735Z,100673.78
2018-10-05T14:06:26.168Z,100666.69
2018-10-05T14:08:55.187Z,100666.34
2018-10-05T14:11:24.315Z,100662.58
2018-10-05T14:13:53.368Z,100660.20
2018-10-05T14:16:23.115Z,100658.84
2018-10-05T14:18:52.140Z,100662.41
2018-10-05T14:21:21.443Z,100657.57
2018-10-05T14:23:50.451Z,100658.72
2018-10-05T14:26:20.551Z,100663.02
2018-10-05T14:28:49.608Z,100663.02
2018-10-05T14:31:18.666Z,100671.14
2018-10-05T14:33:47.821Z,100663.99
2018-10-05T14:36:17.241Z,100664.28
2018-10-05T14:38:46.327Z,100649.73
2018-10-05T14:41:15.343Z,100666.08
2018-10-05T14:43:44.454Z,100666.48
2018-10-05T14:46:13.463Z,100667.06
2018-10-05T14:48:42.508Z,100657.03
2018-10-05T14:51:12.019Z,100651.47
2018-10-05T14:53:41.089Z,100649.17
2018-10-05T14:56:10.323Z,100637.27
2018-10-05T14:58:39.537Z,100642.25
2018-10-05T15:01:08.592Z,100634.28
2018-10-05T15:03:37.729Z,100629.50
2018-10-05T15:06:07.593Z,100631.35
2018-10-05T15:08:36.703Z,100633.84
2018-10-05T15:11:05.791Z,100627.08
2018-10-05T15:13:35.530Z,100637.66
2018-10-05T15:16:04.560Z,100641.44
2018-10-05T15:18:33.663Z,100645.14
2018-10-05T15:21:02.727Z,100645.86
2018-10-05T15:23:31.777Z,100650.36
2018-10-05T15:26:00.789Z,100650.67
2018-10-05T15:28:30.192Z,100661.50
2018-10-05T15:30:59.311Z,100660.81
2018-10-05T15:33:28.332Z,100661.05
2018-10-05T15:35:57.464Z,100655.42
2018-10-05T15:38:27.180Z,100664.17
2018-10-05T15:40:56.636Z,100657.37
2018-10-05T15:43:25.692Z,100665.95
2018-10-05T15:47:07.551Z,100667.45
2018-10-05T15:49:37.688Z,100674.04
2018-10-05T15:52:06.895Z,100677.02
2018-10-05T15:54:36.145Z,100664.17
2018-10-05T15:57:05.686Z,100666.69
2018-10-05T15:59:35.571Z,100667.05
2018-10-05T16:02:05.123Z,100661.78
2018-10-05T16:04:35.135Z,100656.73
2018-10-05T16:07:04.166Z,100645.78
2018-10-05T16:09:33.416Z,100644.95
2018-10-05T16:12:02.961Z,100657.35
2018-10-05T16:14:32.038Z,100653.56
2018-10-05T16:17:01.132Z,100657.71
2018-10-05T16:19:30.631Z,100665.48
2018-10-05T16:21:59.655Z,100667.67
2018-10-05T16:24:35.516Z,100670.06
2018-10-05T16:27:04.525Z,100664.26
2018-10-05T16:29:34.536Z,100665.11
2018-10-05T16:32:03.600Z,100669.30
2018-10-05T16:34:33.635Z,100674.56
2018-10-05T16:37:02.871Z,100675.53
2018-10-05T16:39:32.116Z,100675.67
2018-10-05T16:42:01.227Z,100668.43
2018-10-05T16:44:30.244Z,100658.85
2018-10-05T16:46:59.375Z,100651.16
2018-10-05T16:49:28.518Z,100643.81
2018-10-05T16:51:57.578Z,100644.91
2018-10-05T16:54:26.647Z,100659.50
2018-10-05T16:56:55.683Z,100648.64
2018-10-05T16:59:24.721Z,100638.20
2018-10-05T17:01:54.157Z,100639.92
2018-10-05T17:04:23.280Z,100642.00
2018-10-05T17:06:52.349Z,100647.90
2018-10-05T17:09:21.444Z,100640.80
2018-10-05T17:11:50.474Z,100642.73
2018-10-05T17:14:19.673Z,100643.77
2018-10-05T17:16:49.036Z,100638.84
2018-10-05T17:19:18.120Z,100639.09
2018-10-05T17:21:47.225Z,100638.11
2018-10-05T17:24:16.264Z,100629.08
2018-10-05T17:26:45.300Z,100629.32
2018-10-05T17:29:14.442Z,100637.17
2018-10-05T17:31:43.620Z,100638.03
2018-10-05T17:34:12.612Z,100639.97
2018-10-05T17:36:41.678Z,100636.06
2018-10-05T17:39:11.711Z,100626.63
2018-10-05T17:41:40.807Z,100620.99
2018-10-05T17:44:09.908Z,100616.34
2018-10-05T17:46:38.949Z,100607.02
2018-10-05T17:49:07.986Z,100625.27
2018-10-05T17:51:37.124Z,100632.73
2018-10-05T17:54:07.103Z,100643.75
2018-10-05T17:56:36.183Z,100647.31
2018-10-05T17:59:05.276Z,100634.20
2018-10-05T18:01:34.795Z,100622.56
2018-10-05T18:04:03.876Z,100633.98
2018-10-05T18:06:32.883Z,100631.75
2018-10-05T18:09:01.961Z,100644.98
2018-10-05T18:11:31.108Z,100635.91
2018-10-05T18:14:00.203Z,100643.63
2018-10-05T18:16:29.395Z,100647.25
2018-10-05T18:18:58.553Z,100641.60
2018-10-05T18:21:27.659Z,100628.61
2018-10-05T18:23:56.888Z,100642.98
2018-10-05T18:26:25.956Z,100633.20
2018-10-05T18:28:55.056Z,100636.63
2018-10-05T18:31:24.548Z,100648.38
2018-10-05T18:33:53.671Z,100652.86
2018-10-05T18:36:22.672Z,100653.21
2018-10-05T18:38:52.012Z,100641.83
2018-10-05T18:41:21.158Z,100637.87
2018-10-05T18:43:50.376Z,100634.55
2018-10-05T18:46:19.726Z,100635.53
2018-10-05T18:48:49.309Z,100602.83
2018-10-05T18:51:18.428Z,100629.95
2018-10-05T18:53:47.874Z,100614.00
2018-10-05T18:56:28.128Z,100608.29
2018-10-05T18:58:57.577Z,100612.77
2018-10-05T19:01:26.684Z,100613.63
2018-10-05T19:03:55.781Z,100615.58
2018-10-05T19:06:24.816Z,100617.29
2018-10-05T19:08:53.835Z,100619.86
2018-10-05T19:11:22.847Z,100613.63
2018-10-05T19:13:52.080Z,100619.23
2018-10-05T19:16:21.097Z,100625.22
2018-10-05T19:18:50.162Z,100614.47
2018-10-05T19:21:19.269Z,100635.02
2018-10-05T19:23:48.323Z,100630.13
2018-10-05T19:26:17.537Z,100635.75
2018-10-05T19:28:46.955Z,100635.50
2018-10-05T19:31:16.097Z,100628.78
2018-10-05T19:33:45.112Z,100636.49
2018-10-05T19:36:14.397Z,100642.36
2018-10-05T19:38:43.702Z,100643.45
2018-10-05T19:41:12.761Z,100644.94
2018-10-05T19:43:43.483Z,100643.23
2018-10-05T19:46:12.655Z,100649.21
2018-10-05T19:48:41.672Z,100645.29
2018-10-05T19:51:11.060Z,100638.34
2018-10-05T19:53:40.549Z,100637.72
2018-10-05T19:56:09.967Z,100629.30
2018-10-05T19:58:40.014Z,100636.27
2018-10-05T20:01:09.140Z,100629.17
2018-10-05T20:03:38.291Z,100631.36
2018-10-05T20:06:07.787Z,100635.52
2018-10-05T20:08:36.803Z,100625.23
2018-10-05T20:11:05.903Z,100636.13
2018-10-05T20:13:35.134Z,100630.48
2018-10-05T20:16:04.262Z,100626.92
2018-10-05T20:18:33.467Z,100618.59
2018-10-05T20:21:02.816Z,100618.61
2018-10-05T20:23:31.856Z,100607.69
2018-10-05T20:26:00.987Z,100599.13
2018-10-05T20:28:30.356Z,100601.22
2018-10-05T20:30:59.400Z,100594.35
2018-10-05T20:33:28.474Z,100587.70
2018-10-05T20:35:57.680Z,100583.05
2018-10-05T20:38:26.737Z,100584.53
2018-10-05T20:40:56.149Z,100588.87
2018-10-05T20:43:25.691Z,100585.51
2018-10-05T20:45:54.831Z,100590.69
2018-10-05T20:48:23.840Z,100597.55
2018-10-05T20:50:53.340Z,100603.61
2018-10-05T20:53:23.236Z,100596.84
2018-10-05T20:55:52.347Z,100602.96
2018-10-05T20:58:21.772Z,100604.45
2018-10-05T21:00:50.768Z,100603.35
2018-10-05T21:03:19.841Z,100599.78
2018-10-05T21:05:48.976Z,100592.03
2018-10-05T21:08:18.020Z,100602.23
2018-10-05T21:10:47.127Z,100596.51
2018-10-05T21:13:16.383Z,100594.06
2018-10-05T21:15:45.459Z,100588.08
2018-10-05T21:18:14.508Z,100605.42
2018-10-05T21:20:43.583Z,100593.81
2018-10-05T21:23:12.853Z,100597.98
2018-10-05T21:25:41.979Z,100597.97
2018-10-05T21:28:12.439Z,100599.08
2018-10-05T21:30:41.519Z,100602.49
2018-10-05T21:33:10.629Z,100606.90
2018-10-05T21:35:39.687Z,100608.97
2018-10-05T21:38:08.722Z,100608.73
2018-10-05T21:40:38.042Z,100609.69
2018-10-05T21:43:07.518Z,100602.42
2018-10-05T21:45:36.550Z,100603.56
2018-10-05T21:48:05.595Z,100602.13
2018-10-05T21:50:35.019Z,100597.95
2018-10-05T21:53:04.029Z,100605.89
2018-10-05T21:55:33.090Z,100600.27
2018-10-05T21:58:02.523Z,100599.06
2018-10-05T22:00:42.470Z,100602.26
2018-10-05T22:03:12.459Z,100606.51
2018-10-05T22:05:41.574Z,100390.61
2018-10-05T22:08:12.995Z,100610.43
2018-10-05T22:10:42.851Z,100615.44
2018-10-05T22:13:11.982Z,100611.03
2018-10-05T22:15:41.316Z,100601.66
2018-10-05T22:18:10.419Z,100600.80
2018-10-05T22:20:39.432Z,100595.66
2018-10-05T22:23:08.943Z,100594.14
2018-10-05T22:25:38.234Z,100590.08
2018-10-05T22:28:07.272Z,100596.63
2018-10-05T22:30:36.322Z,100595.66
2018-10-05T22:33:05.567Z,100595.86
2018-10-05T22:35:35.481Z,100594.17
2018-10-05T22:38:05.028Z,100586.30
2018-10-05T22:40:34.188Z,100586.70
2018-10-05T22:43:03.402Z,100583.02
2018-10-05T22:45:32.807Z,100575.01
2018-10-05T22:48:01.837Z,100574.41
2018-10-05T22:50:30.891Z,100573.55
2018-10-05T22:53:00.355Z,100577.95
2018-10-05T22:55:29.488Z,100577.09
2018-10-05T22:57:58.983Z,100577.06
2018-10-05T23:00:28.823Z,100589.56
2018-10-05T23:02:57.857Z,100591.73
2018-10-05T23:05:27.091Z,100583.45
2018-10-05T23:07:56.519Z,100586.25
2018-10-05T23:10:25.607Z,100457.28
2018-10-05T23:12:54.704Z,100583.50
2018-10-05T23:15:23.787Z,100588.80
2018-10-05T23:17:52.887Z,100596.89
2018-10-05T23:20:21.896Z,100591.74
2018-10-05T23:22:51.296Z,100586.77
2018-10-05T23:25:20.323Z,100582.73
2018-10-05T23:27:50.272Z,100580.04
2018-10-05T23:30:19.704Z,100576.52
2018-10-05T23:32:48.787Z,100573.59
2018-10-05T23:35:17.791Z,100569.33
2018-10-05T23:37:47.231Z,100567.78
2018-10-05T23:40:16.272Z,100560.20
2018-10-05T23:42:46.171Z,100554.09
2018-10-05T23:45:15.703Z,100560.82
2018-10-05T23:47:44.800Z,100555.69
2018-10-05T23:50:13.979Z,100568.05
2018-10-05T23:52:48.419Z,100567.08
2018-10-05T23:55:17.783Z,100564.62
2018-10-05T23:57:47.300Z,100556.67
